Berwyn, Nebraska
Current Conditions -  °F | °C
As of 11:53 PM on Saturday 22 Nov 2014 (Local Time) from KBBW Reporting Station
Clear Clear  
Wind Chill: 44°   Ceiling: Unl
Heat Index: 44°   Visibility: 10mi
Dew Point: 30°   Wind: 0mph
Humidity: 58%   Direction: NA
Pressure: 29.49"   Gusts: NA
Location:  41.35°N, 99.5°W
Report Text: KBBW 230553Z AUTO 00000KT 10SM CLR 07/M01 A2949 RMK AO2 SLP982 T00671011 10111 20061 401891044 58005 PWINO $
Loading
Personal Weather Stations






























Interactive Weather Map New forecast layout! Learn more

10-Day Weather Forecast

Advertisements
Track Severe Weather on mobile